Time;durP1;ratioP1;P1;durP2;ratioP2;P2;SDS_P1;SDS_P2;PMS_P1;PMS_P2;Temp;Humidity;BMP_temperature;BMP_pressure;BME280_temperature;BME280_humidity;BME280_pressure;Samples;Min_cycle;Max_cycle;Signal;HPM_P1;HPM_P2
2023/02/08 00:01:09;;;;;;;86.60;34.07;;;;;;;;;;5034869;28;20025;-81
2023/02/08 00:03:35;;;;;;;78.80;33.50;;;;;;;;;;5034302;28;20056;-84
2023/02/08 00:06:02;;;;;;;75.63;32.07;;;;;;;;;;5036751;28;20025;-80
2023/02/08 00:08:27;;;;;;;95.20;33.77;;;;;;;;;;5034336;28;20029;-80
2023/02/08 00:10:52;;;;;;;90.50;32.80;;;;;;;;;;5033580;28;20025;-81
2023/02/08 00:13:18;;;;;;;92.73;35.63;;;;;;;;;;5036441;28;20029;-81
2023/02/08 00:15:45;;;;;;;82.43;32.70;;;;;;;;;;5034424;28;20116;-83
2023/02/08 00:18:11;;;;;;;83.23;34.27;;;;;;;;;;5034335;28;20068;-84
2023/02/08 00:20:41;;;;;;;87.57;32.93;;;;;;;;;;5034828;28;20037;-84
2023/02/08 00:23:07;;;;;;;79.10;32.20;;;;;;;;;;5036169;28;20029;-82
2023/02/08 00:25:33;;;;;;;87.10;34.40;;;;;;;;;;5035147;28;20393;-82
2023/02/08 00:27:58;;;;;;;82.63;33.53;;;;;;;;;;5034632;28;20082;-83
2023/02/08 00:30:25;;;;;;;91.93;32.87;;;;;;;;;;5035888;28;20052;-84
2023/02/08 00:32:50;;;;;;;79.13;32.60;;;;;;;;;;5035096;28;20032;-85
2023/02/08 00:35:16;;;;;;;85.80;32.80;;;;;;;;;;5036111;28;20029;-83
2023/02/08 00:37:41;;;;;;;69.67;32.03;;;;;;;;;;5036503;28;20208;-83
2023/02/08 00:40:08;;;;;;;83.00;32.70;;;;;;;;;;5037359;28;20053;-82
2023/02/08 00:42:33;;;;;;;83.70;35.33;;;;;;;;;;5036924;28;20303;-82
2023/02/08 00:45:05;;;;;;;85.13;33.07;;;;;;;;;;5038670;28;20033;-81
2023/02/08 00:47:31;;;;;;;78.55;31.92;;;;;;;;;;5037098;28;20021;-82
2023/02/08 00:49:56;;;;;;;85.73;33.33;;;;;;;;;;5034039;28;20029;-81
2023/02/08 00:52:22;;;;;;;96.00;35.83;;;;;;;;;;5034769;28;20064;-80
2023/02/08 00:54:47;;;;;;;95.83;32.23;;;;;;;;;;5035114;28;20060;-82
2023/02/08 00:57:13;;;;;;;83.23;35.93;;;;;;;;;;5034237;28;20029;-82
2023/02/08 00:59:39;;;;;;;81.77;35.07;;;;;;;;;;5034578;28;20128;-82
2023/02/08 01:02:05;;;;;;;86.03;32.40;;;;;;;;;;5033600;28;20041;-82
2023/02/08 01:04:30;;;;;;;83.67;34.80;;;;;;;;;;5033731;28;20025;-83
2023/02/08 01:06:56;;;;;;;93.83;35.87;;;;;;;;;;5035756;28;20051;-83
2023/02/08 01:09:22;;;;;;;79.87;32.87;;;;;;;;;;5035870;28;20025;-82
2023/02/08 01:11:47;;;;;;;88.63;32.90;;;;;;;;;;5033948;28;20032;-82
2023/02/08 01:14:13;;;;;;;89.30;34.73;;;;;;;;;;5035629;28;20120;-81
2023/02/08 01:16:38;;;;;;;82.77;33.43;;;;;;;;;;5034945;28;20033;-82
2023/02/08 01:19:04;;;;;;;92.70;33.60;;;;;;;;;;5034721;28;20034;-82
2023/02/08 01:21:38;;;;;;;89.47;34.07;;;;;;;;;;5034129;28;20041;-82
2023/02/08 01:24:04;;;;;;;82.90;32.27;;;;;;;;;;5033811;28;20064;-80
2023/02/08 01:26:31;;;;;;;92.90;34.63;;;;;;;;;;5033831;28;20051;-84
2023/02/08 01:28:58;;;;;;;88.07;34.57;;;;;;;;;;5034757;28;20005;-82
2023/02/08 01:31:35;;;;;;;84.77;34.40;;;;;;;;;;5034042;28;20021;-79
2023/02/08 01:34:02;;;;;;;90.30;33.03;;;;;;;;;;5034262;28;20074;-83
2023/02/08 01:36:29;;;;;;;86.43;34.87;;;;;;;;;;5034404;28;20039;-82
2023/02/08 01:38:55;;;;;;;84.63;33.43;;;;;;;;;;5024879;28;20042;-80
2023/02/08 01:41:25;;;;;;;73.73;30.90;;;;;;;;;;5013151;28;20118;-82
2023/02/08 01:44:08;;;;;;;84.37;33.67;;;;;;;;;;5015244;28;20026;-84
2023/02/08 01:46:42;;;;;;;96.83;36.93;;;;;;;;;;5013186;28;20032;-83
2023/02/08 01:49:16;;;;;;;85.27;32.73;;;;;;;;;;4981747;28;20459;-82
2023/02/08 01:51:46;;;;;;;93.63;34.93;;;;;;;;;;5014618;28;20549;-82
2023/02/08 01:54:14;;;;;;;81.77;30.30;;;;;;;;;;5013918;28;20030;-81
2023/02/08 01:56:44;;;;;;;93.43;32.90;;;;;;;;;;5013652;28;20037;-82
2023/02/08 01:59:16;;;;;;;85.13;32.47;;;;;;;;;;5014142;28;20076;-82
2023/02/08 02:01:44;;;;;;;86.05;33.70;;;;;;;;;;5013588;28;20079;-82
2023/02/08 02:04:10;;;;;;;78.10;30.73;;;;;;;;;;5014977;28;20038;-82
2023/02/08 02:06:41;;;;;;;86.27;34.63;;;;;;;;;;5012651;28;20032;-82
2023/02/08 02:09:32;;;;;;;87.97;31.70;;;;;;;;;;5012439;28;20561;-83
2023/02/08 02:11:59;;;;;;;82.13;33.23;;;;;;;;;;5025725;28;20022;-81
2023/02/08 02:14:25;;;;;;;74.73;30.73;;;;;;;;;;5032699;28;20061;-82
2023/02/08 02:16:51;;;;;;;87.10;38.07;;;;;;;;;;5032121;28;20029;-82
2023/02/08 02:19:41;;;;;;;91.43;36.20;;;;;;;;;;5032791;28;20029;-81
2023/02/08 02:22:30;;;;;;;71.23;31.73;;;;;;;;;;5032999;28;20037;-80
2023/02/08 02:25:16;;;;;;;82.73;31.50;;;;;;;;;;5033742;28;20478;-82
2023/02/08 02:28:09;;;;;;;85.57;30.53;;;;;;;;;;5033418;28;20029;-81
2023/02/08 02:31:14;;;;;;;88.07;34.07;;;;;;;;;;5032855;28;20022;-81
2023/02/08 02:33:52;;;;;;;73.43;29.50;;;;;;;;;;5032139;28;20105;-81
2023/02/08 02:36:31;;;;;;;80.13;32.70;;;;;;;;;;5032082;28;20022;-83
2023/02/08 02:39:34;;;;;;;90.57;32.60;;;;;;;;;;5033869;28;20073;-82
2023/02/08 02:45:27;;;;;;;78.20;29.50;;;;;;;;;;5033999;28;20007;-81
2023/02/08 02:48:05;;;;;;;72.00;29.70;;;;;;;;;;5028224;28;20435;-80
2023/02/08 02:50:39;;;;;;;69.90;29.73;;;;;;;;;;5034913;28;20106;-82
2023/02/08 02:53:16;;;;;;;82.07;29.83;;;;;;;;;;5034750;28;20029;-81
2023/02/08 02:55:55;;;;;;;90.73;35.90;;;;;;;;;;5033399;28;20029;-82
2023/02/08 02:58:23;;;;;;;79.77;30.47;;;;;;;;;;5034276;28;20037;-82
2023/02/08 03:00:54;;;;;;;80.40;32.50;;;;;;;;;;5032636;28;20030;-82
2023/02/08 03:03:23;;;;;;;80.07;31.73;;;;;;;;;;5033156;28;20054;-82
2023/02/08 03:05:51;;;;;;;72.40;30.23;;;;;;;;;;5032034;28;20129;-81
2023/02/08 03:08:20;;;;;;;75.20;30.97;;;;;;;;;;5033791;28;20025;-83
2023/02/08 03:10:58;;;;;;;84.37;32.63;;;;;;;;;;5032038;28;20044;-81
2023/02/08 03:13:38;;;;;;;77.63;32.50;;;;;;;;;;5033486;28;20037;-84
2023/02/08 03:16:25;;;;;;;93.07;31.93;;;;;;;;;;5031952;28;20393;-82
2023/02/08 03:19:16;;;;;;;76.80;28.57;;;;;;;;;;5032702;28;20025;-81
2023/02/08 03:21:56;;;;;;;68.70;29.83;;;;;;;;;;5032891;28;20359;-82
2023/02/08 03:24:37;;;;;;;76.17;32.97;;;;;;;;;;5033070;28;20167;-82
2023/02/08 03:27:30;;;;;;;80.80;33.63;;;;;;;;;;5033831;28;20454;-82
2023/02/08 03:30:14;;;;;;;70.23;29.13;;;;;;;;;;5037759;28;20091;-81
2023/02/08 03:32:43;;;;;;;80.33;32.73;;;;;;;;;;5036999;28;20025;-81
2023/02/08 03:35:18;;;;;;;76.27;32.87;;;;;;;;;;5037922;28;20031;-81
2023/02/08 03:37:50;;;;;;;77.67;30.17;;;;;;;;;;5036417;28;20041;-81
2023/02/08 03:40:21;;;;;;;76.57;32.65;;;;;;;;;;5037498;28;20014;-81
2023/02/08 03:42:49;;;;;;;77.63;32.60;;;;;;;;;;5037298;28;20040;-81
2023/02/08 03:45:25;;;;;;;83.30;33.87;;;;;;;;;;5036881;28;20025;-81
2023/02/08 03:47:54;;;;;;;79.50;31.77;;;;;;;;;;5037051;28;20021;-81
2023/02/08 03:50:22;;;;;;;83.20;33.53;;;;;;;;;;5037524;28;20214;-82
2023/02/08 03:52:50;;;;;;;81.00;31.37;;;;;;;;;;5034769;28;20485;-80
2023/02/08 03:55:20;;;;;;;87.13;35.47;;;;;;;;;;5036797;28;20036;-82
2023/02/08 03:57:52;;;;;;;79.73;34.30;;;;;;;;;;5035229;28;20029;-82
2023/02/08 04:00:20;;;;;;;83.07;35.08;;;;;;;;;;5034992;28;20033;-83
2023/02/08 04:03:00;;;;;;;90.00;32.80;;;;;;;;;;5036380;28;20029;-83
2023/02/08 04:05:26;;;;;;;83.03;30.20;;;;;;;;;;5034997;28;20045;-81
2023/02/08 04:07:51;;;;;;;80.20;33.43;;;;;;;;;;5035646;28;20033;-82
2023/02/08 04:10:17;;;;;;;79.63;32.30;;;;;;;;;;5035805;28;20083;-83
2023/02/08 04:12:43;;;;;;;89.27;34.27;;;;;;;;;;5037259;28;20033;-83
2023/02/08 04:15:09;;;;;;;88.50;31.43;;;;;;;;;;5035248;28;20045;-82
2023/02/08 04:17:34;;;;;;;81.63;31.23;;;;;;;;;;5047653;28;20025;-82
2023/02/08 04:20:00;;;;;;;80.97;30.10;;;;;;;;;;5054984;28;20017;-82
2023/02/08 04:22:26;;;;;;;81.87;32.43;;;;;;;;;;5054996;28;20366;-83
2023/02/08 04:24:51;;;;;;;90.57;32.63;;;;;;;;;;5055552;28;20033;-83
2023/02/08 04:27:17;;;;;;;95.07;34.53;;;;;;;;;;5057040;28;20028;-83
2023/02/08 04:29:42;;;;;;;86.10;32.30;;;;;;;;;;5056822;28;20079;-82
2023/02/08 04:32:10;;;;;;;92.73;36.57;;;;;;;;;;5056161;28;20035;-81
2023/02/08 04:34:37;;;;;;;88.47;31.97;;;;;;;;;;5057308;28;20021;-83
2023/02/08 04:37:03;;;;;;;92.07;32.60;;;;;;;;;;5056781;28;20105;-82
2023/02/08 04:39:29;;;;;;;71.87;32.63;;;;;;;;;;5040761;28;20060;-82
2023/02/08 04:41:54;;;;;;;83.17;31.20;;;;;;;;;;5035313;28;20026;-82
2023/02/08 04:44:20;;;;;;;90.00;34.77;;;;;;;;;;5034836;28;20036;-81
2023/02/08 04:46:45;;;;;;;78.83;31.43;;;;;;;;;;5034823;28;20025;-82
2023/02/08 04:49:11;;;;;;;91.20;36.67;;;;;;;;;;5034644;28;20117;-80
2023/02/08 04:51:36;;;;;;;82.00;32.70;;;;;;;;;;5035393;28;20028;-81
2023/02/08 04:54:02;;;;;;;81.30;33.00;;;;;;;;;;5036753;28;20029;-81
2023/02/08 04:56:27;;;;;;;78.67;31.60;;;;;;;;;;5034422;28;20045;-83
2023/02/08 04:58:53;;;;;;;84.90;34.27;;;;;;;;;;5036455;28;20045;-82
2023/02/08 05:01:18;;;;;;;79.13;34.03;;;;;;;;;;5035130;28;20029;-82
2023/02/08 05:03:44;;;;;;;84.70;34.47;;;;;;;;;;5034770;28;20052;-81
2023/02/08 05:06:09;;;;;;;82.67;32.77;;;;;;;;;;5036660;28;20033;-82
2023/02/08 05:08:35;;;;;;;82.77;30.63;;;;;;;;;;5035840;28;20021;-82
2023/02/08 05:11:00;;;;;;;92.73;33.63;;;;;;;;;;5035922;28;20017;-82
2023/02/08 05:13:26;;;;;;;87.23;32.63;;;;;;;;;;5035680;28;20029;-82
2023/02/08 05:15:52;;;;;;;94.03;34.40;;;;;;;;;;5034608;28;20132;-82
2023/02/08 05:18:17;;;;;;;82.67;35.73;;;;;;;;;;5034884;28;20091;-83
2023/02/08 05:20:43;;;;;;;80.03;33.60;;;;;;;;;;5035318;28;20021;-81
2023/02/08 05:23:11;;;;;;;86.00;34.97;;;;;;;;;;5034146;28;20037;-82
2023/02/08 05:25:38;;;;;;;84.20;32.33;;;;;;;;;;5034808;28;20025;-83
2023/02/08 05:28:04;;;;;;;79.20;32.13;;;;;;;;;;5034832;28;20040;-82
2023/02/08 05:30:30;;;;;;;92.37;35.03;;;;;;;;;;5034114;28;20022;-81
2023/02/08 05:32:56;;;;;;;91.67;33.77;;;;;;;;;;5035115;28;20648;-84
2023/02/08 05:35:21;;;;;;;77.17;32.97;;;;;;;;;;5033806;28;20029;-82
2023/02/08 05:37:47;;;;;;;70.17;33.17;;;;;;;;;;5033188;28;20120;-82
2023/02/08 05:40:12;;;;;;;85.37;38.03;;;;;;;;;;5030403;28;20047;-82
2023/02/08 05:42:38;;;;;;;95.13;40.30;;;;;;;;;;5012953;28;20117;-79
2023/02/08 05:45:04;;;;;;;100.57;44.83;;;;;;;;;;5023293;28;20089;-81
2023/02/08 05:47:30;;;;;;;116.80;50.27;;;;;;;;;;5017934;28;20029;-79
2023/02/08 05:49:55;;;;;;;107.50;48.93;;;;;;;;;;5021385;28;20042;-81
2023/02/08 05:52:21;;;;;;;121.20;50.87;;;;;;;;;;5011528;28;20030;-79
2023/02/08 05:54:46;;;;;;;95.20;46.80;;;;;;;;;;5027120;28;20040;-80
2023/02/08 05:57:12;;;;;;;115.80;50.07;;;;;;;;;;5015057;28;20109;-80
2023/02/08 05:59:37;;;;;;;104.47;48.13;;;;;;;;;;5016876;28;20061;-80
2023/02/08 06:02:03;;;;;;;120.47;50.10;;;;;;;;;;5050134;28;20029;-80
2023/02/08 06:04:28;;;;;;;115.57;47.83;;;;;;;;;;5025694;28;20029;-80
2023/02/08 06:06:54;;;;;;;109.63;47.17;;;;;;;;;;5014288;28;20072;-80
2023/02/08 06:09:19;;;;;;;104.03;48.83;;;;;;;;;;5017012;28;20481;-82
2023/02/08 06:11:45;;;;;;;103.80;48.27;;;;;;;;;;5024399;28;20022;-79
2023/02/08 06:14:10;;;;;;;94.27;42.80;;;;;;;;;;5027224;28;20036;-80
2023/02/08 06:16:36;;;;;;;126.33;49.53;;;;;;;;;;5012746;28;20149;-79
2023/02/08 06:19:01;;;;;;;100.03;44.47;;;;;;;;;;5022315;28;20044;-79
2023/02/08 06:21:27;;;;;;;96.63;44.87;;;;;;;;;;5028285;28;20026;-81
2023/02/08 06:23:53;;;;;;;97.53;41.80;;;;;;;;;;5023069;28;20064;-80
2023/02/08 06:26:18;;;;;;;98.37;43.43;;;;;;;;;;5026972;28;20103;-82
2023/02/08 06:28:44;;;;;;;92.57;40.87;;;;;;;;;;5031551;28;20057;-82
2023/02/08 06:31:11;;;;;;;97.13;43.77;;;;;;;;;;5025970;28;20113;-83
2023/02/08 06:33:36;;;;;;;106.77;46.03;;;;;;;;;;5020161;28;20128;-83
2023/02/08 06:36:02;;;;;;;83.67;38.70;;;;;;;;;;5025525;28;20117;-82
2023/02/08 06:38:27;;;;;;;98.33;42.67;;;;;;;;;;5040312;28;20049;-82
2023/02/08 06:40:53;;;;;;;87.20;40.07;;;;;;;;;;5014836;28;20029;-80
2023/02/08 06:43:19;;;;;;;101.43;41.20;;;;;;;;;;5023821;28;20033;-79
2023/02/08 06:45:45;;;;;;;110.90;43.00;;;;;;;;;;5023763;28;20481;-79
2023/02/08 06:48:11;;;;;;;94.87;39.73;;;;;;;;;;5020509;28;20021;-81
2023/02/08 06:50:37;;;;;;;89.50;38.83;;;;;;;;;;5032382;28;20028;-80
2023/02/08 06:53:03;;;;;;;101.43;39.90;;;;;;;;;;5025011;28;20819;-79
2023/02/08 06:55:28;;;;;;;101.27;39.13;;;;;;;;;;5022018;28;20190;-81
2023/02/08 06:57:55;;;;;;;97.43;37.87;;;;;;;;;;5022135;28;20038;-80
2023/02/08 07:00:21;;;;;;;100.60;39.53;;;;;;;;;;5021118;28;20041;-80
2023/02/08 07:02:46;;;;;;;92.87;37.63;;;;;;;;;;5018188;28;20033;-80
2023/02/08 07:05:13;;;;;;;104.23;39.97;;;;;;;;;;5027233;28;20032;-80
2023/02/08 07:07:38;;;;;;;105.37;42.53;;;;;;;;;;5028179;28;20036;-79
2023/02/08 07:10:04;;;;;;;103.50;44.30;;;;;;;;;;5034274;28;20025;-83
2023/02/08 07:12:34;;;;;;;99.20;40.13;;;;;;;;;;5032515;28;20116;-80
2023/02/08 07:15:00;;;;;;;103.73;42.83;;;;;;;;;;5028396;28;20140;-81
2023/02/08 07:17:25;;;;;;;104.17;40.97;;;;;;;;;;5029906;28;20528;-84
2023/02/08 07:19:51;;;;;;;83.57;35.33;;;;;;;;;;5021909;28;20179;-83
2023/02/08 07:22:22;;;;;;;86.87;35.77;;;;;;;;;;5030839;28;20037;-86
2023/02/08 07:24:48;;;;;;;109.65;38.97;;;;;;;;;;5033068;28;20029;-81
2023/02/08 07:27:13;;;;;;;95.90;37.47;;;;;;;;;;5036253;28;20578;-82
2023/02/08 07:29:39;;;;;;;89.23;35.53;;;;;;;;;;5031449;28;20042;-82
2023/02/08 07:32:06;;;;;;;91.87;37.97;;;;;;;;;;5018243;28;20032;-84
2023/02/08 07:34:35;;;;;;;92.73;35.97;;;;;;;;;;5026053;28;20068;-81
2023/02/08 07:37:02;;;;;;;77.43;33.30;;;;;;;;;;5041027;28;20452;-85
2023/02/08 07:39:30;;;;;;;81.67;36.33;;;;;;;;;;5024833;28;20133;-79
2023/02/08 07:41:57;;;;;;;90.37;36.93;;;;;;;;;;5027659;28;20386;-81
2023/02/08 07:44:23;;;;;;;75.17;34.40;;;;;;;;;;5021891;28;20044;-78
2023/02/08 07:46:48;;;;;;;80.93;33.57;;;;;;;;;;5028721;28;20025;-82
2023/02/08 07:49:14;;;;;;;80.57;33.30;;;;;;;;;;5023411;28;20375;-80
2023/02/08 07:51:40;;;;;;;86.23;36.40;;;;;;;;;;5025360;28;20083;-81
2023/02/08 07:54:05;;;;;;;89.37;33.93;;;;;;;;;;5026818;28;20029;-81
2023/02/08 07:56:31;;;;;;;79.03;31.33;;;;;;;;;;5034765;28;20048;-82
2023/02/08 07:58:57;;;;;;;85.30;31.57;;;;;;;;;;5031918;28;20041;-82
2023/02/08 08:01:23;;;;;;;75.53;31.27;;;;;;;;;;5026696;28;20030;-81
2023/02/08 08:03:50;;;;;;;88.43;33.93;;;;;;;;;;5021902;28;20052;-81
2023/02/08 08:06:17;;;;;;;95.30;36.33;;;;;;;;;;5025901;28;20029;-81
2023/02/08 08:08:46;;;;;;;74.07;29.03;;;;;;;;;;5024445;28;20051;-83
2023/02/08 08:11:13;;;;;;;81.77;33.27;;;;;;;;;;5016156;28;20034;-82
2023/02/08 08:13:39;;;;;;;84.03;31.43;;;;;;;;;;5032624;28;20040;-82
2023/02/08 08:16:04;;;;;;;75.97;29.07;;;;;;;;;;5023174;28;20017;-80
2023/02/08 08:18:30;;;;;;;72.47;28.33;;;;;;;;;;5027346;28;20014;-82
2023/02/08 08:20:56;;;;;;;72.67;28.53;;;;;;;;;;5022984;28;20053;-81
2023/02/08 08:23:22;;;;;;;70.93;27.17;;;;;;;;;;5025642;28;20041;-80
2023/02/08 08:25:49;;;;;;;69.97;26.17;;;;;;;;;;5028129;28;20486;-82
2023/02/08 08:28:15;;;;;;;59.73;24.27;;;;;;;;;;5024702;28;20029;-80
2023/02/08 08:30:43;;;;;;;69.70;24.40;;;;;;;;;;5025954;28;20040;-81
2023/02/08 08:33:09;;;;;;;60.90;24.37;;;;;;;;;;5027297;28;20521;-85
2023/02/08 08:35:34;;;;;;;59.70;23.97;;;;;;;;;;5029871;28;20041;-82
2023/02/08 08:38:00;;;;;;;64.70;24.87;;;;;;;;;;5032511;28;20500;-79
2023/02/08 08:40:25;;;;;;;69.50;23.47;;;;;;;;;;5031706;28;20049;-80
2023/02/08 08:42:51;;;;;;;63.20;22.73;;;;;;;;;;5019629;28;20033;-81
2023/02/08 08:45:18;;;;;;;57.97;23.53;;;;;;;;;;5027634;28;20041;-81
2023/02/08 08:47:43;;;;;;;58.97;23.50;;;;;;;;;;5031720;28;20124;-81
2023/02/08 08:50:09;;;;;;;63.50;25.53;;;;;;;;;;5020179;28;20506;-81
2023/02/08 08:52:34;;;;;;;73.93;24.00;;;;;;;;;;5021323;28;20121;-81
2023/02/08 08:55:00;;;;;;;51.80;21.43;;;;;;;;;;5019960;28;20029;-81
2023/02/08 08:57:25;;;;;;;59.20;22.97;;;;;;;;;;5023347;28;20034;-78
2023/02/08 08:59:51;;;;;;;48.27;21.37;;;;;;;;;;5037053;28;20473;-84
2023/02/08 09:02:16;;;;;;;59.47;22.13;;;;;;;;;;5020313;28;20095;-81
2023/02/08 09:04:42;;;;;;;51.23;22.23;;;;;;;;;;5026198;28;20033;-81
2023/02/08 09:07:14;;;;;;;51.97;20.43;;;;;;;;;;5032049;28;20044;-79
2023/02/08 09:09:40;;;;;;;57.40;20.97;;;;;;;;;;5028186;28;20044;-81
2023/02/08 09:12:07;;;;;;;40.67;17.60;;;;;;;;;;5024267;28;20108;-80
2023/02/08 09:14:33;;;;;;;65.57;19.60;;;;;;;;;;5023541;28;20037;-83
2023/02/08 09:17:00;;;;;;;47.67;19.87;;;;;;;;;;5025639;28;20120;-80
2023/02/08 09:19:26;;;;;;;53.23;19.03;;;;;;;;;;5027562;28;20041;-82
2023/02/08 09:21:52;;;;;;;47.53;18.63;;;;;;;;;;5027047;28;20453;-82
2023/02/08 09:24:18;;;;;;;50.07;17.90;;;;;;;;;;5024555;28;20041;-79
2023/02/08 09:26:45;;;;;;;53.07;18.33;;;;;;;;;;5026448;28;20083;-81
2023/02/08 09:29:10;;;;;;;52.37;18.47;;;;;;;;;;5021194;28;20041;-81
2023/02/08 09:31:38;;;;;;;46.63;19.10;;;;;;;;;;5026684;28;20462;-82
2023/02/08 09:34:04;;;;;;;54.80;18.43;;;;;;;;;;5019240;28;20029;-80
2023/02/08 09:36:39;;;;;;;49.10;18.17;;;;;;;;;;5020394;28;20033;-81
2023/02/08 09:39:15;;;;;;;41.07;17.37;;;;;;;;;;5018904;28;20080;-82
2023/02/08 09:41:52;;;;;;;42.90;17.20;;;;;;;;;;5016063;28;20034;-82
2023/02/08 09:44:34;;;;;;;43.73;16.80;;;;;;;;;;5018836;28;20030;-81
2023/02/08 09:47:33;;;;;;;41.97;16.65;;;;;;;;;;5026740;28;20478;-83
2023/02/08 09:50:13;;;;;;;40.27;14.93;;;;;;;;;;5011631;28;20041;-81
2023/02/08 09:53:07;;;;;;;45.60;15.90;;;;;;;;;;5023473;28;20033;-81
2023/02/08 09:55:39;;;;;;;37.27;16.47;;;;;;;;;;5028263;28;20048;-81
2023/02/08 09:58:18;;;;;;;51.00;18.57;;;;;;;;;;5019845;28;20045;-83
2023/02/08 10:00:47;;;;;;;39.03;16.43;;;;;;;;;;5022165;28;20037;-80
2023/02/08 10:03:40;;;;;;;39.77;15.07;;;;;;;;;;5005559;28;20080;-84
2023/02/08 10:06:10;;;;;;;43.00;17.23;;;;;;;;;;5010381;28;20041;-80
2023/02/08 10:08:36;;;;;;;44.50;17.87;;;;;;;;;;5022437;28;20433;-80
2023/02/08 10:11:06;;;;;;;40.60;16.37;;;;;;;;;;5015237;28;20100;-80
2023/02/08 10:14:12;;;;;;;43.27;17.53;;;;;;;;;;5016129;28;20497;-83
2023/02/08 10:17:01;;;;;;;50.00;14.70;;;;;;;;;;5024545;28;20387;-81
2023/02/08 10:19:46;;;;;;;40.97;16.00;;;;;;;;;;5021919;28;20009;-80
2023/02/08 10:22:31;;;;;;;48.27;16.13;;;;;;;;;;5027753;28;20037;-80
2023/02/08 10:25:22;;;;;;;46.73;15.43;;;;;;;;;;5024959;28;20080;-83
2023/02/08 10:28:00;;;;;;;34.17;14.33;;;;;;;;;;5023543;28;20091;-80
2023/02/08 10:30:49;;;;;;;38.50;13.57;;;;;;;;;;5018391;28;20021;-80
2023/02/08 10:33:26;;;;;;;38.47;15.23;;;;;;;;;;5016644;28;20070;-80
2023/02/08 10:35:53;;;;;;;32.67;14.60;;;;;;;;;;5017787;28;20029;-82
2023/02/08 10:38:18;;;;;;;39.03;14.63;;;;;;;;;;5037236;28;20107;-81
2023/02/08 10:40:50;;;;;;;37.07;15.17;;;;;;;;;;5032443;28;20044;-82
2023/02/08 10:43:39;;;;;;;36.08;14.30;;;;;;;;;;5029320;28;20033;-81
2023/02/08 10:46:16;;;;;;;41.13;15.33;;;;;;;;;;5025048;28;20037;-82
2023/02/08 10:49:07;;;;;;;39.23;14.97;;;;;;;;;;5034191;28;20037;-83
2023/02/08 10:51:33;;;;;;;46.30;17.03;;;;;;;;;;5024706;28;20022;-80
2023/02/08 10:53:59;;;;;;;36.57;14.77;;;;;;;;;;5028019;28;20056;-83
2023/02/08 10:56:35;;;;;;;39.23;14.17;;;;;;;;;;5032094;28;20034;-83
2023/02/08 10:59:12;;;;;;;40.33;16.00;;;;;;;;;;5025529;28;20099;-83
2023/02/08 11:01:38;;;;;;;35.23;14.40;;;;;;;;;;5027243;28;20721;-80
2023/02/08 11:04:08;;;;;;;32.27;14.07;;;;;;;;;;5019009;28;20025;-83
2023/02/08 11:06:35;;;;;;;39.17;15.43;;;;;;;;;;5034720;28;20179;-86
2023/02/08 11:09:01;;;;;;;44.80;15.37;;;;;;;;;;5028187;28;20032;-85
2023/02/08 11:11:33;;;;;;;40.93;14.83;;;;;;;;;;5032878;28;20093;-85
2023/02/08 11:14:15;;;;;;;43.93;14.80;;;;;;;;;;5024512;28;20026;-83
2023/02/08 11:16:42;;;;;;;38.42;14.30;;;;;;;;;;5029723;28;20037;-81
2023/02/08 11:19:24;;;;;;;36.47;15.17;;;;;;;;;;5024870;28;20045;-83
2023/02/08 11:21:51;;;;;;;37.15;15.27;;;;;;;;;;5035157;28;20037;-83
2023/02/08 11:24:38;;;;;;;35.73;14.90;;;;;;;;;;5037853;28;20091;-85
2023/02/08 11:27:28;;;;;;;42.23;15.77;;;;;;;;;;5022231;28;20128;-86
2023/02/08 11:30:18;;;;;;;46.03;15.20;;;;;;;;;;5029814;28;20475;-85
2023/02/08 11:32:46;;;;;;;29.30;12.87;;;;;;;;;;5020943;28;20498;-84
2023/02/08 11:35:25;;;;;;;34.37;14.37;;;;;;;;;;5031615;28;20040;-83
2023/02/08 11:37:57;;;;;;;34.27;14.60;;;;;;;;;;5018812;28;20057;-82
2023/02/08 11:40:35;;;;;;;42.78;16.67;;;;;;;;;;5046220;28;20862;-84
2023/02/08 11:43:01;;;;;;;32.20;13.93;;;;;;;;;;5021554;28;20116;-82
2023/02/08 11:45:32;;;;;;;39.33;15.10;;;;;;;;;;5028525;28;20037;-82
2023/02/08 11:48:00;;;;;;;43.27;15.13;;;;;;;;;;5021231;28;20049;-82
2023/02/08 11:50:30;;;;;;;40.03;15.47;;;;;;;;;;5026351;28;20049;-80
2023/02/08 11:53:03;;;;;;;35.00;14.23;;;;;;;;;;5024516;28;20037;-86
2023/02/08 11:55:33;;;;;;;35.03;14.27;;;;;;;;;;5030597;28;20029;-84
2023/02/08 11:58:11;;;;;;;44.47;13.90;;;;;;;;;;5046621;28;20037;-88
2023/02/08 12:00:39;;;;;;;40.53;15.10;;;;;;;;;;5024641;28;20030;-84
2023/02/08 12:03:10;;;;;;;46.87;14.60;;;;;;;;;;5039297;28;20048;-82
2023/02/08 12:05:44;;;;;;;35.55;13.80;;;;;;;;;;5038252;28;20036;-83
2023/02/08 12:08:19;;;;;;;38.50;15.37;;;;;;;;;;5030490;28;20115;-82
2023/02/08 12:11:40;;;;;;;36.47;15.83;;;;;;;;;;5032559;28;20033;-82
2023/02/08 12:14:12;;;;;;;41.83;14.80;;;;;;;;;;5008398;28;20071;-83
2023/02/08 12:17:28;;;;;;;34.90;15.10;;;;;;;;;;5027088;28;20036;-83
2023/02/08 12:20:14;;;;;;;38.50;14.53;;;;;;;;;;4994977;28;20074;-84
2023/02/08 12:22:51;;;;;;;32.80;13.73;;;;;;;;;;4995271;28;20037;-86
2023/02/08 12:25:37;;;;;;;30.83;14.77;;;;;;;;;;5031610;28;20033;-80
2023/02/08 12:28:12;;;;;;;48.43;16.33;;;;;;;;;;5024698;28;20018;-82
2023/02/08 12:30:45;;;;;;;38.87;16.43;;;;;;;;;;5027542;28;20052;-80
2023/02/08 12:33:20;;;;;;;41.17;15.37;;;;;;;;;;5028402;28;20033;-79
2023/02/08 12:35:51;;;;;;;39.23;15.00;;;;;;;;;;5031318;28;20424;-82
2023/02/08 12:41:27;;;;;;;37.57;16.67;;;;;;;;;;5026447;28;20073;-87
2023/02/08 12:44:12;;;;;;;42.63;14.93;;;;;;;;;;5032732;28;20029;-83
2023/02/08 12:47:14;;;;;;;51.40;16.60;;;;;;;;;;5031533;28;20025;-83
2023/02/08 12:50:12;;;;;;;39.37;15.43;;;;;;;;;;5032218;28;20037;-85
2023/02/08 12:52:47;;;;;;;32.30;13.20;;;;;;;;;;5044546;28;20026;-81
2023/02/08 12:55:24;;;;;;;39.13;13.27;;;;;;;;;;5028852;28;20350;-83
2023/02/08 12:57:53;;;;;;;32.53;12.87;;;;;;;;;;5028397;28;20029;-83
2023/02/08 13:00:25;;;;;;;30.43;11.83;;;;;;;;;;5028416;28;20119;-83
2023/02/08 13:03:16;;;;;;;35.13;13.40;;;;;;;;;;5028988;28;20117;-84
2023/02/08 13:05:46;;;;;;;32.63;12.43;;;;;;;;;;5024390;28;20028;-85
2023/02/08 13:08:38;;;;;;;34.37;14.10;;;;;;;;;;5029087;28;20048;-83
2023/02/08 13:11:10;;;;;;;33.45;12.82;;;;;;;;;;5028540;28;20048;-83
2023/02/08 13:13:38;;;;;;;29.27;12.50;;;;;;;;;;5032045;28;20025;-83
2023/02/08 13:16:22;;;;;;;42.00;13.20;;;;;;;;;;5027092;28;20030;-85
2023/02/08 13:19:46;;;;;;;24.70;12.27;;;;;;;;;;5031264;28;20041;-85
2023/02/08 13:22:14;;;;;;;33.37;11.93;;;;;;;;;;5000415;28;20041;-84
2023/02/08 13:24:43;;;;;;;26.83;11.63;;;;;;;;;;5020790;28;20029;-80
2023/02/08 13:27:21;;;;;;;34.80;11.37;;;;;;;;;;5025502;28;20029;-83
2023/02/08 13:29:50;;;;;;;30.13;10.00;;;;;;;;;;5021712;28;20030;-82
2023/02/08 13:32:29;;;;;;;31.90;11.40;;;;;;;;;;5030590;28;20156;-79
2023/02/08 13:35:17;;;;;;;30.00;12.07;;;;;;;;;;5021012;28;20034;-84
2023/02/08 13:37:51;;;;;;;27.33;11.17;;;;;;;;;;5028610;28;20046;-86
2023/02/08 13:40:27;;;;;;;34.27;13.20;;;;;;;;;;5014095;28;20046;-86
2023/02/08 13:43:18;;;;;;;24.47;10.83;;;;;;;;;;5032917;28;20053;-85
2023/02/08 13:45:49;;;;;;;31.73;12.10;;;;;;;;;;5026540;28;20069;-85
2023/02/08 13:48:16;;;;;;;30.73;13.50;;;;;;;;;;5033959;28;20093;-84
2023/02/08 13:50:44;;;;;;;28.67;11.33;;;;;;;;;;5028793;28;20026;-84
2023/02/08 13:53:11;;;;;;;35.67;12.47;;;;;;;;;;5032663;28;20030;-83
2023/02/08 13:55:56;;;;;;;24.97;11.23;;;;;;;;;;5027049;28;20037;-82
2023/02/08 13:58:36;;;;;;;25.63;10.67;;;;;;;;;;5031326;28;20013;-85
2023/02/08 14:01:21;;;;;;;25.33;11.40;;;;;;;;;;5026553;28;20060;-83
2023/02/08 14:04:06;;;;;;;27.63;11.07;;;;;;;;;;5026826;28;20017;-80
2023/02/08 14:06:35;;;;;;;28.73;10.90;;;;;;;;;;5027131;28;20033;-84
2023/02/08 14:09:32;;;;;;;41.93;11.60;;;;;;;;;;5030427;28;20499;-84
2023/02/08 14:12:43;;;;;;;24.57;9.93;;;;;;;;;;5027536;28;20041;-85
2023/02/08 14:15:15;;;;;;;25.33;12.00;;;;;;;;;;5026426;28;20037;-85
2023/02/08 14:17:53;;;;;;;36.70;14.07;;;;;;;;;;5042492;28;20188;-86
2023/02/08 14:20:35;;;;;;;36.13;15.90;;;;;;;;;;5037516;28;20052;-86
2023/02/08 14:23:04;;;;;;;35.90;14.47;;;;;;;;;;5034182;28;20095;-86
2023/02/08 14:25:42;;;;;;;36.63;15.30;;;;;;;;;;5039196;28;20033;-87
2023/02/08 14:28:25;;;;;;;35.60;14.00;;;;;;;;;;5034795;28;20045;-87
2023/02/08 14:30:54;;;;;;;37.70;15.10;;;;;;;;;;5033019;28;20102;-86
2023/02/08 14:33:39;;;;;;;35.37;15.23;;;;;;;;;;5036484;28;20034;-85
2023/02/08 14:36:20;;;;;;;36.67;13.90;;;;;;;;;;5037177;28;20048;-84
2023/02/08 14:39:04;;;;;;;30.60;13.63;;;;;;;;;;5036151;28;20192;-85
2023/02/08 14:41:41;;;;;;;37.97;14.83;;;;;;;;;;5043705;28;20579;-83
2023/02/08 14:44:40;;;;;;;39.17;14.77;;;;;;;;;;5024020;28;20040;-83
2023/02/08 14:47:24;;;;;;;35.33;14.73;;;;;;;;;;5044879;28;20021;-82
2023/02/08 14:50:25;;;;;;;36.73;14.07;;;;;;;;;;5032367;28;20025;-85